East Orleans, MA

3:43 PM EST on December 05, 2016 (GMT -0500)
Countryside Orleans | | Change Station

Elev 95 ft 41.79 °N, 69.94 °W | Updated 4 minutes ago

Light Rain
Light Rain Mist
42.9 °F
Feels Like 43 °F
N
0.0
Wind Variable Wind from WSW
Gusts 4.0 mph

Today
High -- | Low -- °F
--% Chance of Precip.
Yesterday
High -- | Low -- °F
Precip. -- in
Pressure 29.91 in
Visibility 1.5 miles
Clouds Overcast 400 ft
Windchill 43 °F
Dew Point 42 °F
Humidity 95%
Rainfall in
Snow Depth Not available.
6:51 AM 4:09 PM
Waxing Crescent, 34% visible
SPECI KCQX 052031Z AUTO 29004KT 1 1/2SM -RA BR OVC004 07/06 A2991 RMK AO2 P0002 T00670061
Pressure 29.91 in
Visibility 1.5 miles
Clouds Overcast 400 ft
Windchill 43 °F
Dew Point 42 °F
Humidity 95%
Rainfall in
Snow Depth Not available.
6:51 AM 4:09 PM
Waxing Crescent, 34% visible
SPECI KCQX 052031Z AUTO 29004KT 1 1/2SM -RA BR OVC004 07/06 A2991 RMK AO2 P0002 T00670061

10-Day Weather Forecast

Almanac

Astronomy

Dec. 05, 2016 Rise Set
Actual Time
Civil Twilight
Nautical Twilight
Astronomical Twilight
Moon
Length of Visible Light
Length of Day
Tomorrow will be .
, % of the Moon is Illuminated

Today's Extremes

State Highs State Lows

Community

WunderPhotos

Upload Photos

1,955,861 photos uploaded!

WunderBlog® & News

Nearby

Air Quality

  Air Quality AQ Index Pollutant
Not available.

Snow Depth

Station Depth Elevation

Earthquake Activity

City Distance Mag. Time & Date
Minimum magnitude displayed is 2.5.

Coastal Water Temperatures

Place Temperature

Stations

Nearby Weather Stations

Station Location Temp. Windchill Dew Point Humidity Wind Precip. Elev Updated Type
                   

Watches & Warnings

There are currently no watches in effect.